sensor_id;sensor_type;location;lat;lon;timestamp;P1;durP1;ratioP1;P2;durP2;ratioP2
69894;SDS011;57172;52.034;5.090;2023-09-30T00:01:17;16.13;;;5.47;;
69894;SDS011;57172;52.034;5.090;2023-09-30T00:03:45;17.90;;;5.30;;
69894;SDS011;57172;52.034;5.090;2023-09-30T00:06:12;12.45;;;5.43;;
69894;SDS011;57172;52.034;5.090;2023-09-30T00:08:39;11.35;;;5.32;;
69894;SDS011;57172;52.034;5.090;2023-09-30T00:11:08;13.60;;;5.05;;
69894;SDS011;57172;52.034;5.090;2023-09-30T00:13:36;15.35;;;5.55;;
69894;SDS011;57172;52.034;5.090;2023-09-30T00:16:03;15.90;;;5.30;;
69894;SDS011;57172;52.034;5.090;2023-09-30T00:18:30;16.17;;;5.47;;
69894;SDS011;57172;52.034;5.090;2023-09-30T00:20:57;15.15;;;5.43;;
69894;SDS011;57172;52.034;5.090;2023-09-30T00:23:24;12.93;;;5.85;;
69894;SDS011;57172;52.034;5.090;2023-09-30T00:25:52;14.82;;;5.97;;
69894;SDS011;57172;52.034;5.090;2023-09-30T00:28:19;14.20;;;5.13;;
69894;SDS011;57172;52.034;5.090;2023-09-30T00:30:47;14.20;;;6.50;;
69894;SDS011;57172;52.034;5.090;2023-09-30T00:33:14;14.02;;;5.80;;
69894;SDS011;57172;52.034;5.090;2023-09-30T00:35:41;15.57;;;5.65;;
69894;SDS011;57172;52.034;5.090;2023-09-30T00:38:08;15.00;;;5.93;;
69894;SDS011;57172;52.034;5.090;2023-09-30T00:40:37;16.33;;;5.73;;
69894;SDS011;57172;52.034;5.090;2023-09-30T00:43:04;16.33;;;5.93;;
69894;SDS011;57172;52.034;5.090;2023-09-30T00:45:31;11.55;;;5.50;;
69894;SDS011;57172;52.034;5.090;2023-09-30T00:47:59;11.95;;;5.63;;
69894;SDS011;57172;52.034;5.090;2023-09-30T00:50:27;13.90;;;6.10;;
69894;SDS011;57172;52.034;5.090;2023-09-30T00:52:55;16.63;;;6.07;;
69894;SDS011;57172;52.034;5.090;2023-09-30T00:55:22;14.73;;;6.10;;
69894;SDS011;57172;52.034;5.090;2023-09-30T00:57:49;16.48;;;6.30;;
69894;SDS011;57172;52.034;5.090;2023-09-30T01:00:17;13.88;;;5.95;;
69894;SDS011;57172;52.034;5.090;2023-09-30T01:02:46;15.93;;;6.22;;
69894;SDS011;57172;52.034;5.090;2023-09-30T01:05:13;14.57;;;6.10;;
69894;SDS011;57172;52.034;5.090;2023-09-30T01:07:40;14.35;;;5.80;;
69894;SDS011;57172;52.034;5.090;2023-09-30T01:10:07;14.02;;;5.93;;
69894;SDS011;57172;52.034;5.090;2023-09-30T01:12:34;13.77;;;5.90;;
69894;SDS011;57172;52.034;5.090;2023-09-30T01:15:01;13.75;;;6.28;;
69894;SDS011;57172;52.034;5.090;2023-09-30T01:17:33;13.30;;;6.33;;
69894;SDS011;57172;52.034;5.090;2023-09-30T01:20:01;12.85;;;6.25;;
69894;SDS011;57172;52.034;5.090;2023-09-30T01:22:32;15.77;;;6.88;;
69894;SDS011;57172;52.034;5.090;2023-09-30T01:24:59;14.13;;;6.05;;
69894;SDS011;57172;52.034;5.090;2023-09-30T01:27:26;18.15;;;6.63;;
69894;SDS011;57172;52.034;5.090;2023-09-30T01:29:53;15.17;;;6.47;;
69894;SDS011;57172;52.034;5.090;2023-09-30T01:32:20;14.85;;;6.50;;
69894;SDS011;57172;52.034;5.090;2023-09-30T01:34:47;13.95;;;6.28;;
69894;SDS011;57172;52.034;5.090;2023-09-30T01:37:14;16.35;;;6.90;;
69894;SDS011;57172;52.034;5.090;2023-09-30T01:39:42;14.88;;;6.90;;
69894;SDS011;57172;52.034;5.090;2023-09-30T01:42:11;18.90;;;7.40;;
69894;SDS011;57172;52.034;5.090;2023-09-30T01:44:38;13.23;;;6.88;;
69894;SDS011;57172;52.034;5.090;2023-09-30T01:47:05;19.52;;;7.07;;
69894;SDS011;57172;52.034;5.090;2023-09-30T01:49:32;19.65;;;6.95;;
69894;SDS011;57172;52.034;5.090;2023-09-30T01:51:59;17.20;;;7.18;;
69894;SDS011;57172;52.034;5.090;2023-09-30T01:54:26;15.60;;;7.07;;
69894;SDS011;57172;52.034;5.090;2023-09-30T01:56:54;17.90;;;6.97;;
69894;SDS011;57172;52.034;5.090;2023-09-30T01:59:21;14.48;;;6.80;;
69894;SDS011;57172;52.034;5.090;2023-09-30T02:01:48;19.02;;;7.60;;
69894;SDS011;57172;52.034;5.090;2023-09-30T02:04:16;15.90;;;7.07;;
69894;SDS011;57172;52.034;5.090;2023-09-30T02:06:43;15.20;;;6.80;;
69894;SDS011;57172;52.034;5.090;2023-09-30T02:09:10;18.33;;;7.53;;
69894;SDS011;57172;52.034;5.090;2023-09-30T02:11:37;17.13;;;7.10;;
69894;SDS011;57172;52.034;5.090;2023-09-30T02:14:07;17.27;;;7.40;;
69894;SDS011;57172;52.034;5.090;2023-09-30T02:16:39;15.05;;;6.90;;
69894;SDS011;57172;52.034;5.090;2023-09-30T02:19:06;16.03;;;7.10;;
69894;SDS011;57172;52.034;5.090;2023-09-30T02:21:33;20.00;;;7.35;;
69894;SDS011;57172;52.034;5.090;2023-09-30T02:24:02;21.83;;;7.55;;
69894;SDS011;57172;52.034;5.090;2023-09-30T02:26:29;15.25;;;7.03;;
69894;SDS011;57172;52.034;5.090;2023-09-30T02:28:56;14.85;;;6.82;;
69894;SDS011;57172;52.034;5.090;2023-09-30T02:31:24;17.07;;;7.43;;
69894;SDS011;57172;52.034;5.090;2023-09-30T02:33:51;15.68;;;7.07;;
69894;SDS011;57172;52.034;5.090;2023-09-30T02:36:18;17.38;;;7.55;;
69894;SDS011;57172;52.034;5.090;2023-09-30T02:38:45;15.98;;;7.50;;
69894;SDS011;57172;52.034;5.090;2023-09-30T02:41:13;17.05;;;7.55;;
69894;SDS011;57172;52.034;5.090;2023-09-30T02:43:41;17.30;;;7.90;;
69894;SDS011;57172;52.034;5.090;2023-09-30T02:46:08;17.58;;;7.80;;
69894;SDS011;57172;52.034;5.090;2023-09-30T02:48:36;16.15;;;7.22;;
69894;SDS011;57172;52.034;5.090;2023-09-30T02:51:03;15.93;;;7.65;;
69894;SDS011;57172;52.034;5.090;2023-09-30T02:53:30;17.88;;;7.50;;
69894;SDS011;57172;52.034;5.090;2023-09-30T02:55:57;18.53;;;8.20;;
69894;SDS011;57172;52.034;5.090;2023-09-30T02:58:26;19.95;;;8.23;;
69894;SDS011;57172;52.034;5.090;2023-09-30T03:00:53;16.88;;;7.78;;
69894;SDS011;57172;52.034;5.090;2023-09-30T03:03:21;15.95;;;8.00;;
69894;SDS011;57172;52.034;5.090;2023-09-30T03:05:48;15.85;;;7.72;;
69894;SDS011;57172;52.034;5.090;2023-09-30T03:08:16;21.87;;;8.30;;
69894;SDS011;57172;52.034;5.090;2023-09-30T03:10:44;18.40;;;8.00;;
69894;SDS011;57172;52.034;5.090;2023-09-30T03:13:10;18.45;;;8.27;;
69894;SDS011;57172;52.034;5.090;2023-09-30T03:15:38;17.77;;;8.35;;
69894;SDS011;57172;52.034;5.090;2023-09-30T03:18:05;20.85;;;8.48;;
69894;SDS011;57172;52.034;5.090;2023-09-30T03:20:32;22.17;;;8.90;;
69894;SDS011;57172;52.034;5.090;2023-09-30T03:22:59;19.60;;;9.00;;
69894;SDS011;57172;52.034;5.090;2023-09-30T03:25:28;18.75;;;8.77;;
69894;SDS011;57172;52.034;5.090;2023-09-30T03:27:56;19.25;;;8.65;;
69894;SDS011;57172;52.034;5.090;2023-09-30T03:30:24;19.65;;;8.70;;
69894;SDS011;57172;52.034;5.090;2023-09-30T03:32:51;19.50;;;8.87;;
69894;SDS011;57172;52.034;5.090;2023-09-30T03:35:18;21.77;;;8.70;;
69894;SDS011;57172;52.034;5.090;2023-09-30T03:37:46;17.30;;;8.88;;
69894;SDS011;57172;52.034;5.090;2023-09-30T03:40:14;19.75;;;8.85;;
69894;SDS011;57172;52.034;5.090;2023-09-30T03:42:46;19.05;;;8.65;;
69894;SDS011;57172;52.034;5.090;2023-09-30T03:45:16;18.27;;;8.47;;
69894;SDS011;57172;52.034;5.090;2023-09-30T03:47:45;21.23;;;8.65;;
69894;SDS011;57172;52.034;5.090;2023-09-30T03:50:15;18.58;;;8.45;;
69894;SDS011;57172;52.034;5.090;2023-09-30T03:52:43;19.58;;;8.40;;
69894;SDS011;57172;52.034;5.090;2023-09-30T03:55:13;20.95;;;8.63;;
69894;SDS011;57172;52.034;5.090;2023-09-30T03:57:42;19.60;;;8.30;;
69894;SDS011;57172;52.034;5.090;2023-09-30T04:00:14;19.50;;;8.30;;
69894;SDS011;57172;52.034;5.090;2023-09-30T04:02:47;17.77;;;8.63;;
69894;SDS011;57172;52.034;5.090;2023-09-30T04:05:17;16.10;;;8.60;;
69894;SDS011;57172;52.034;5.090;2023-09-30T04:07:45;22.38;;;8.80;;
69894;SDS011;57172;52.034;5.090;2023-09-30T04:10:13;18.70;;;8.63;;
69894;SDS011;57172;52.034;5.090;2023-09-30T04:12:41;19.42;;;8.60;;
69894;SDS011;57172;52.034;5.090;2023-09-30T04:15:08;19.38;;;8.70;;
69894;SDS011;57172;52.034;5.090;2023-09-30T04:17:38;19.77;;;7.88;;
69894;SDS011;57172;52.034;5.090;2023-09-30T04:20:06;19.77;;;9.18;;
69894;SDS011;57172;52.034;5.090;2023-09-30T04:22:45;23.40;;;9.50;;
69894;SDS011;57172;52.034;5.090;2023-09-30T04:25:16;20.75;;;9.25;;
69894;SDS011;57172;52.034;5.090;2023-09-30T04:27:44;21.85;;;9.50;;
69894;SDS011;57172;52.034;5.090;2023-09-30T04:30:15;24.98;;;9.93;;
69894;SDS011;57172;52.034;5.090;2023-09-30T04:32:43;20.35;;;9.68;;
69894;SDS011;57172;52.034;5.090;2023-09-30T04:35:10;21.23;;;9.90;;
69894;SDS011;57172;52.034;5.090;2023-09-30T04:37:37;23.02;;;9.88;;
69894;SDS011;57172;52.034;5.090;2023-09-30T04:40:05;23.63;;;10.70;;
69894;SDS011;57172;52.034;5.090;2023-09-30T04:42:35;23.65;;;10.73;;
69894;SDS011;57172;52.034;5.090;2023-09-30T04:45:05;22.35;;;10.38;;
69894;SDS011;57172;52.034;5.090;2023-09-30T04:47:34;20.03;;;10.00;;
69894;SDS011;57172;52.034;5.090;2023-09-30T04:50:01;23.10;;;10.57;;
69894;SDS011;57172;52.034;5.090;2023-09-30T04:52:34;21.50;;;10.35;;
69894;SDS011;57172;52.034;5.090;2023-09-30T04:55:01;25.40;;;11.07;;
69894;SDS011;57172;52.034;5.090;2023-09-30T04:57:30;21.48;;;10.10;;
69894;SDS011;57172;52.034;5.090;2023-09-30T05:00:00;24.20;;;10.90;;
69894;SDS011;57172;52.034;5.090;2023-09-30T05:02:27;21.63;;;10.00;;
69894;SDS011;57172;52.034;5.090;2023-09-30T05:04:54;23.35;;;10.68;;
69894;SDS011;57172;52.034;5.090;2023-09-30T05:07:21;23.48;;;10.85;;
69894;SDS011;57172;52.034;5.090;2023-09-30T05:09:49;25.90;;;10.82;;
69894;SDS011;57172;52.034;5.090;2023-09-30T05:12:16;24.77;;;11.23;;
69894;SDS011;57172;52.034;5.090;2023-09-30T05:14:43;21.40;;;10.98;;
69894;SDS011;57172;52.034;5.090;2023-09-30T05:17:10;24.98;;;11.30;;
69894;SDS011;57172;52.034;5.090;2023-09-30T05:19:37;28.38;;;11.35;;
69894;SDS011;57172;52.034;5.090;2023-09-30T05:22:04;23.77;;;11.52;;
69894;SDS011;57172;52.034;5.090;2023-09-30T05:24:31;23.67;;;10.47;;
69894;SDS011;57172;52.034;5.090;2023-09-30T05:26:59;23.55;;;11.48;;
69894;SDS011;57172;52.034;5.090;2023-09-30T05:29:26;35.42;;;11.73;;
69894;SDS011;57172;52.034;5.090;2023-09-30T05:31:53;26.52;;;11.77;;
69894;SDS011;57172;52.034;5.090;2023-09-30T05:34:20;23.45;;;11.38;;
69894;SDS011;57172;52.034;5.090;2023-09-30T05:36:47;28.47;;;12.30;;
69894;SDS011;57172;52.034;5.090;2023-09-30T05:39:18;27.75;;;11.75;;
69894;SDS011;57172;52.034;5.090;2023-09-30T05:41:46;27.92;;;12.07;;
69894;SDS011;57172;52.034;5.090;2023-09-30T05:44:13;30.85;;;12.68;;
69894;SDS011;57172;52.034;5.090;2023-09-30T05:46:41;25.42;;;12.00;;
69894;SDS011;57172;52.034;5.090;2023-09-30T05:49:10;26.13;;;11.63;;
69894;SDS011;57172;52.034;5.090;2023-09-30T05:51:40;24.27;;;11.80;;
69894;SDS011;57172;52.034;5.090;2023-09-30T05:54:08;25.38;;;12.18;;
69894;SDS011;57172;52.034;5.090;2023-09-30T05:56:38;27.13;;;12.50;;
69894;SDS011;57172;52.034;5.090;2023-09-30T05:59:09;31.38;;;12.55;;
69894;SDS011;57172;52.034;5.090;2023-09-30T06:01:36;23.17;;;11.23;;
69894;SDS011;57172;52.034;5.090;2023-09-30T06:04:03;27.75;;;12.40;;
69894;SDS011;57172;52.034;5.090;2023-09-30T06:06:31;30.67;;;13.45;;
69894;SDS011;57172;52.034;5.090;2023-09-30T06:08:59;24.88;;;13.18;;
69894;SDS011;57172;52.034;5.090;2023-09-30T06:11:26;28.85;;;13.45;;
69894;SDS011;57172;52.034;5.090;2023-09-30T06:13:57;27.33;;;13.17;;
69894;SDS011;57172;52.034;5.090;2023-09-30T06:16:27;24.25;;;12.98;;
69894;SDS011;57172;52.034;5.090;2023-09-30T06:18:55;29.48;;;14.23;;
69894;SDS011;57172;52.034;5.090;2023-09-30T06:21:24;26.42;;;13.00;;
69894;SDS011;57172;52.034;5.090;2023-09-30T06:23:55;31.10;;;13.85;;
69894;SDS011;57172;52.034;5.090;2023-09-30T06:26:22;28.97;;;12.10;;
69894;SDS011;57172;52.034;5.090;2023-09-30T06:28:51;25.08;;;12.68;;
69894;SDS011;57172;52.034;5.090;2023-09-30T06:31:21;27.55;;;13.38;;
69894;SDS011;57172;52.034;5.090;2023-09-30T06:33:48;27.02;;;13.60;;
69894;SDS011;57172;52.034;5.090;2023-09-30T06:36:15;32.00;;;13.05;;
69894;SDS011;57172;52.034;5.090;2023-09-30T06:38:43;27.23;;;13.17;;
69894;SDS011;57172;52.034;5.090;2023-09-30T06:41:17;28.83;;;13.63;;
69894;SDS011;57172;52.034;5.090;2023-09-30T06:43:45;26.70;;;13.18;;
69894;SDS011;57172;52.034;5.090;2023-09-30T06:46:13;24.73;;;13.75;;
69894;SDS011;57172;52.034;5.090;2023-09-30T06:48:40;25.80;;;12.23;;
69894;SDS011;57172;52.034;5.090;2023-09-30T06:51:12;30.23;;;13.10;;
69894;SDS011;57172;52.034;5.090;2023-09-30T06:53:41;26.58;;;12.77;;
69894;SDS011;57172;52.034;5.090;2023-09-30T06:56:08;26.80;;;12.95;;
69894;SDS011;57172;52.034;5.090;2023-09-30T06:58:35;26.23;;;13.35;;
69894;SDS011;57172;52.034;5.090;2023-09-30T07:01:02;27.45;;;13.00;;
69894;SDS011;57172;52.034;5.090;2023-09-30T07:03:29;25.10;;;12.53;;
69894;SDS011;57172;52.034;5.090;2023-09-30T07:05:57;22.70;;;11.50;;
69894;SDS011;57172;52.034;5.090;2023-09-30T07:08:27;21.50;;;10.93;;
69894;SDS011;57172;52.034;5.090;2023-09-30T07:10:58;21.83;;;11.00;;
69894;SDS011;57172;52.034;5.090;2023-09-30T07:13:26;22.38;;;10.60;;
69894;SDS011;57172;52.034;5.090;2023-09-30T07:15:53;18.77;;;10.47;;
69894;SDS011;57172;52.034;5.090;2023-09-30T07:18:20;19.90;;;10.45;;
69894;SDS011;57172;52.034;5.090;2023-09-30T07:20:47;17.50;;;10.02;;
69894;SDS011;57172;52.034;5.090;2023-09-30T07:23:14;21.00;;;9.82;;
69894;SDS011;57172;52.034;5.090;2023-09-30T07:25:46;20.90;;;10.68;;
69894;SDS011;57172;52.034;5.090;2023-09-30T07:28:14;18.23;;;9.97;;
69894;SDS011;57172;52.034;5.090;2023-09-30T07:30:41;18.77;;;9.73;;
69894;SDS011;57172;52.034;5.090;2023-09-30T07:33:08;18.80;;;9.48;;
69894;SDS011;57172;52.034;5.090;2023-09-30T07:35:35;19.88;;;10.63;;
69894;SDS011;57172;52.034;5.090;2023-09-30T07:38:03;19.33;;;10.13;;
69894;SDS011;57172;52.034;5.090;2023-09-30T07:40:30;21.47;;;9.83;;
69894;SDS011;57172;52.034;5.090;2023-09-30T07:42:59;18.65;;;9.55;;
69894;SDS011;57172;52.034;5.090;2023-09-30T07:45:26;17.50;;;9.98;;
69894;SDS011;57172;52.034;5.090;2023-09-30T07:47:53;18.88;;;9.20;;
69894;SDS011;57172;52.034;5.090;2023-09-30T07:50:21;17.40;;;9.60;;
69894;SDS011;57172;52.034;5.090;2023-09-30T07:52:48;14.60;;;8.87;;
69894;SDS011;57172;52.034;5.090;2023-09-30T07:55:15;16.55;;;8.50;;
69894;SDS011;57172;52.034;5.090;2023-09-30T07:57:42;16.08;;;8.68;;
69894;SDS011;57172;52.034;5.090;2023-09-30T08:00:10;16.30;;;8.95;;
69894;SDS011;57172;52.034;5.090;2023-09-30T08:02:42;18.38;;;9.13;;
69894;SDS011;57172;52.034;5.090;2023-09-30T08:05:10;15.37;;;8.63;;
69894;SDS011;57172;52.034;5.090;2023-09-30T08:07:38;16.58;;;9.05;;
69894;SDS011;57172;52.034;5.090;2023-09-30T08:10:06;15.70;;;8.55;;
69894;SDS011;57172;52.034;5.090;2023-09-30T08:12:39;15.65;;;8.23;;
69894;SDS011;57172;52.034;5.090;2023-09-30T08:15:08;16.80;;;7.88;;
69894;SDS011;57172;52.034;5.090;2023-09-30T08:17:38;14.80;;;7.97;;
69894;SDS011;57172;52.034;5.090;2023-09-30T08:20:06;13.32;;;8.20;;
69894;SDS011;57172;52.034;5.090;2023-09-30T08:22:34;14.20;;;7.60;;
69894;SDS011;57172;52.034;5.090;2023-09-30T08:25:01;18.02;;;8.20;;
69894;SDS011;57172;52.034;5.090;2023-09-30T08:27:29;16.35;;;7.97;;
69894;SDS011;57172;52.034;5.090;2023-09-30T08:29:56;12.90;;;7.33;;
69894;SDS011;57172;52.034;5.090;2023-09-30T08:32:23;17.13;;;7.63;;
69894;SDS011;57172;52.034;5.090;2023-09-30T08:34:50;14.30;;;8.02;;
69894;SDS011;57172;52.034;5.090;2023-09-30T08:37:17;15.90;;;7.70;;
69894;SDS011;57172;52.034;5.090;2023-09-30T08:39:44;15.10;;;7.40;;
69894;SDS011;57172;52.034;5.090;2023-09-30T08:42:11;12.63;;;7.37;;
69894;SDS011;57172;52.034;5.090;2023-09-30T08:44:39;15.90;;;7.60;;
69894;SDS011;57172;52.034;5.090;2023-09-30T08:47:06;12.10;;;6.90;;
69894;SDS011;57172;52.034;5.090;2023-09-30T08:49:37;15.15;;;6.70;;
69894;SDS011;57172;52.034;5.090;2023-09-30T08:52:09;13.13;;;6.65;;
69894;SDS011;57172;52.034;5.090;2023-09-30T08:54:39;12.47;;;5.97;;
69894;SDS011;57172;52.034;5.090;2023-09-30T08:57:07;15.38;;;6.65;;
69894;SDS011;57172;52.034;5.090;2023-09-30T08:59:36;12.25;;;6.57;;
69894;SDS011;57172;52.034;5.090;2023-09-30T09:02:12;11.15;;;6.30;;
69894;SDS011;57172;52.034;5.090;2023-09-30T09:04:39;13.82;;;6.95;;
69894;SDS011;57172;52.034;5.090;2023-09-30T09:07:07;13.67;;;6.80;;
69894;SDS011;57172;52.034;5.090;2023-09-30T09:09:34;14.43;;;6.40;;
69894;SDS011;57172;52.034;5.090;2023-09-30T09:12:01;14.50;;;6.38;;
69894;SDS011;57172;52.034;5.090;2023-09-30T09:14:38;13.35;;;6.50;;
69894;SDS011;57172;52.034;5.090;2023-09-30T09:17:08;13.52;;;7.05;;
69894;SDS011;57172;52.034;5.090;2023-09-30T09:19:37;11.43;;;6.50;;
69894;SDS011;57172;52.034;5.090;2023-09-30T09:22:04;12.20;;;5.97;;
69894;SDS011;57172;52.034;5.090;2023-09-30T09:24:34;12.15;;;6.45;;
69894;SDS011;57172;52.034;5.090;2023-09-30T09:27:12;13.63;;;6.70;;
69894;SDS011;57172;52.034;5.090;2023-09-30T09:29:43;12.85;;;5.85;;
69894;SDS011;57172;52.034;5.090;2023-09-30T09:32:13;11.23;;;5.37;;
69894;SDS011;57172;52.034;5.090;2023-09-30T09:34:42;11.40;;;5.07;;
69894;SDS011;57172;52.034;5.090;2023-09-30T09:37:17;11.77;;;4.90;;
69894;SDS011;57172;52.034;5.090;2023-09-30T09:39:55;10.05;;;5.32;;
69894;SDS011;57172;52.034;5.090;2023-09-30T09:42:27;9.75;;;5.18;;
69894;SDS011;57172;52.034;5.090;2023-09-30T09:45:03;10.33;;;5.30;;
69894;SDS011;57172;52.034;5.090;2023-09-30T09:47:32;13.68;;;4.90;;
69894;SDS011;57172;52.034;5.090;2023-09-30T09:50:01;10.95;;;4.50;;
69894;SDS011;57172;52.034;5.090;2023-09-30T09:52:30;9.90;;;5.10;;
69894;SDS011;57172;52.034;5.090;2023-09-30T09:55:00;11.15;;;5.05;;
69894;SDS011;57172;52.034;5.090;2023-09-30T09:57:28;11.40;;;5.03;;
69894;SDS011;57172;52.034;5.090;2023-09-30T09:59:57;11.43;;;4.85;;
69894;SDS011;57172;52.034;5.090;2023-09-30T10:02:26;11.70;;;4.90;;
69894;SDS011;57172;52.034;5.090;2023-09-30T10:04:55;11.20;;;4.90;;
69894;SDS011;57172;52.034;5.090;2023-09-30T10:07:33;9.32;;;4.53;;
69894;SDS011;57172;52.034;5.090;2023-09-30T10:10:03;10.77;;;4.50;;
69894;SDS011;57172;52.034;5.090;2023-09-30T10:12:37;10.50;;;4.80;;
69894;SDS011;57172;52.034;5.090;2023-09-30T10:20:33;14.27;;;4.90;;
69894;SDS011;57172;52.034;5.090;2023-09-30T10:25:49;12.57;;;4.68;;
69894;SDS011;57172;52.034;5.090;2023-09-30T10:36:34;9.83;;;4.30;;
69894;SDS011;57172;52.034;5.090;2023-09-30T10:39:05;10.23;;;4.32;;
69894;SDS011;57172;52.034;5.090;2023-09-30T10:46:52;12.85;;;4.00;;
69894;SDS011;57172;52.034;5.090;2023-09-30T10:51:50;8.10;;;3.80;;
69894;SDS011;57172;52.034;5.090;2023-09-30T10:54:31;7.72;;;3.60;;
69894;SDS011;57172;52.034;5.090;2023-09-30T10:56:59;9.38;;;3.83;;
69894;SDS011;57172;52.034;5.090;2023-09-30T10:59:30;9.63;;;3.95;;
69894;SDS011;57172;52.034;5.090;2023-09-30T11:01:59;10.63;;;3.93;;
69894;SDS011;57172;52.034;5.090;2023-09-30T11:04:26;8.48;;;3.60;;
69894;SDS011;57172;52.034;5.090;2023-09-30T11:06:55;8.85;;;3.50;;
69894;SDS011;57172;52.034;5.090;2023-09-30T11:09:23;10.32;;;3.80;;
69894;SDS011;57172;52.034;5.090;2023-09-30T11:11:51;8.32;;;3.47;;
69894;SDS011;57172;52.034;5.090;2023-09-30T11:14:24;9.67;;;3.90;;
69894;SDS011;57172;52.034;5.090;2023-09-30T11:16:59;11.57;;;4.03;;
69894;SDS011;57172;52.034;5.090;2023-09-30T11:19:34;10.85;;;4.28;;
69894;SDS011;57172;52.034;5.090;2023-09-30T11:22:03;8.07;;;4.15;;
69894;SDS011;57172;52.034;5.090;2023-09-30T11:24:35;10.13;;;3.45;;
69894;SDS011;57172;52.034;5.090;2023-09-30T11:27:03;8.50;;;3.60;;
69894;SDS011;57172;52.034;5.090;2023-09-30T11:29:31;6.50;;;2.90;;
69894;SDS011;57172;52.034;5.090;2023-09-30T11:31:58;7.80;;;2.63;;
69894;SDS011;57172;52.034;5.090;2023-09-30T11:34:31;7.78;;;2.95;;
69894;SDS011;57172;52.034;5.090;2023-09-30T11:37:00;7.05;;;2.80;;
69894;SDS011;57172;52.034;5.090;2023-09-30T11:39:37;7.00;;;2.57;;
69894;SDS011;57172;52.034;5.090;2023-09-30T11:42:15;9.10;;;2.95;;
69894;SDS011;57172;52.034;5.090;2023-09-30T11:44:46;8.90;;;3.22;;
69894;SDS011;57172;52.034;5.090;2023-09-30T11:47:14;8.90;;;3.58;;
69894;SDS011;57172;52.034;5.090;2023-09-30T11:49:44;9.73;;;3.60;;
69894;SDS011;57172;52.034;5.090;2023-09-30T11:52:25;8.40;;;3.33;;
69894;SDS011;57172;52.034;5.090;2023-09-30T11:54:56;7.43;;;2.92;;
69894;SDS011;57172;52.034;5.090;2023-09-30T11:57:24;7.78;;;3.05;;
69894;SDS011;57172;52.034;5.090;2023-09-30T11:59:51;9.52;;;3.67;;
69894;SDS011;57172;52.034;5.090;2023-09-30T12:02:18;8.45;;;3.47;;
69894;SDS011;57172;52.034;5.090;2023-09-30T12:04:46;7.93;;;3.33;;
69894;SDS011;57172;52.034;5.090;2023-09-30T12:07:16;9.45;;;3.20;;
69894;SDS011;57172;52.034;5.090;2023-09-30T12:09:43;8.02;;;2.55;;
69894;SDS011;57172;52.034;5.090;2023-09-30T12:12:13;8.35;;;3.10;;
69894;SDS011;57172;52.034;5.090;2023-09-30T12:14:41;12.80;;;3.40;;
69894;SDS011;57172;52.034;5.090;2023-09-30T12:17:09;11.27;;;3.30;;
69894;SDS011;57172;52.034;5.090;2023-09-30T12:19:41;9.27;;;3.45;;
69894;SDS011;57172;52.034;5.090;2023-09-30T12:22:09;9.48;;;3.20;;
69894;SDS011;57172;52.034;5.090;2023-09-30T12:24:37;10.05;;;3.10;;
69894;SDS011;57172;52.034;5.090;2023-09-30T12:27:06;8.68;;;3.00;;
69894;SDS011;57172;52.034;5.090;2023-09-30T12:29:33;8.93;;;3.10;;
69894;SDS011;57172;52.034;5.090;2023-09-30T12:32:00;9.35;;;3.20;;
69894;SDS011;57172;52.034;5.090;2023-09-30T12:34:28;11.82;;;3.00;;
69894;SDS011;57172;52.034;5.090;2023-09-30T12:36:55;7.82;;;2.75;;
69894;SDS011;57172;52.034;5.090;2023-09-30T12:39:25;8.20;;;2.45;;
69894;SDS011;57172;52.034;5.090;2023-09-30T12:41:56;9.40;;;2.90;;
69894;SDS011;57172;52.034;5.090;2023-09-30T12:44:23;10.23;;;2.83;;
69894;SDS011;57172;52.034;5.090;2023-09-30T12:46:50;7.15;;;2.95;;
69894;SDS011;57172;52.034;5.090;2023-09-30T12:49:17;7.82;;;2.90;;
69894;SDS011;57172;52.034;5.090;2023-09-30T12:51:45;9.35;;;2.80;;
69894;SDS011;57172;52.034;5.090;2023-09-30T12:54:12;9.33;;;2.90;;
69894;SDS011;57172;52.034;5.090;2023-09-30T12:56:41;7.68;;;2.80;;
69894;SDS011;57172;52.034;5.090;2023-09-30T12:59:08;7.85;;;2.60;;
69894;SDS011;57172;52.034;5.090;2023-09-30T13:01:35;7.68;;;2.78;;
69894;SDS011;57172;52.034;5.090;2023-09-30T13:04:03;8.20;;;2.70;;
69894;SDS011;57172;52.034;5.090;2023-09-30T13:06:34;7.93;;;3.00;;
69894;SDS011;57172;52.034;5.090;2023-09-30T13:09:02;9.10;;;2.80;;
69894;SDS011;57172;52.034;5.090;2023-09-30T13:11:32;8.77;;;2.80;;
69894;SDS011;57172;52.034;5.090;2023-09-30T13:14:02;8.27;;;2.63;;
69894;SDS011;57172;52.034;5.090;2023-09-30T13:16:29;8.93;;;2.70;;
69894;SDS011;57172;52.034;5.090;2023-09-30T13:18:57;7.00;;;2.50;;
69894;SDS011;57172;52.034;5.090;2023-09-30T13:21:24;7.47;;;2.58;;
69894;SDS011;57172;52.034;5.090;2023-09-30T13:23:52;8.32;;;2.72;;
69894;SDS011;57172;52.034;5.090;2023-09-30T13:26:19;11.88;;;3.00;;
69894;SDS011;57172;52.034;5.090;2023-09-30T13:28:46;8.48;;;2.90;;
69894;SDS011;57172;52.034;5.090;2023-09-30T13:31:13;8.53;;;2.90;;
69894;SDS011;57172;52.034;5.090;2023-09-30T13:33:40;6.97;;;2.42;;
69894;SDS011;57172;52.034;5.090;2023-09-30T13:36:08;5.72;;;2.42;;
69894;SDS011;57172;52.034;5.090;2023-09-30T13:38:35;8.07;;;2.50;;
69894;SDS011;57172;52.034;5.090;2023-09-30T13:41:03;6.47;;;2.70;;
69894;SDS011;57172;52.034;5.090;2023-09-30T13:43:30;10.67;;;3.33;;
69894;SDS011;57172;52.034;5.090;2023-09-30T13:45:57;7.43;;;2.80;;
69894;SDS011;57172;52.034;5.090;2023-09-30T13:48:29;9.18;;;3.22;;
69894;SDS011;57172;52.034;5.090;2023-09-30T13:51:03;8.15;;;2.85;;
69894;SDS011;57172;52.034;5.090;2023-09-30T13:53:33;7.05;;;2.60;;
69894;SDS011;57172;52.034;5.090;2023-09-30T13:56:01;6.83;;;2.60;;
69894;SDS011;57172;52.034;5.090;2023-09-30T13:58:29;10.13;;;3.10;;
69894;SDS011;57172;52.034;5.090;2023-09-30T14:00:57;9.15;;;2.78;;
69894;SDS011;57172;52.034;5.090;2023-09-30T14:03:24;9.38;;;3.05;;
69894;SDS011;57172;52.034;5.090;2023-09-30T14:05:51;11.18;;;3.40;;
69894;SDS011;57172;52.034;5.090;2023-09-30T14:08:19;11.00;;;3.03;;
69894;SDS011;57172;52.034;5.090;2023-09-30T14:10:46;7.70;;;3.10;;
69894;SDS011;57172;52.034;5.090;2023-09-30T14:13:16;9.18;;;3.20;;
69894;SDS011;57172;52.034;5.090;2023-09-30T14:15:43;9.85;;;3.13;;
69894;SDS011;57172;52.034;5.090;2023-09-30T14:18:11;10.48;;;3.40;;
69894;SDS011;57172;52.034;5.090;2023-09-30T14:20:38;10.97;;;3.17;;
69894;SDS011;57172;52.034;5.090;2023-09-30T14:23:05;10.55;;;3.42;;
69894;SDS011;57172;52.034;5.090;2023-09-30T14:25:32;8.60;;;3.10;;
69894;SDS011;57172;52.034;5.090;2023-09-30T14:27:59;8.70;;;2.90;;
69894;SDS011;57172;52.034;5.090;2023-09-30T14:30:26;9.73;;;3.33;;
69894;SDS011;57172;52.034;5.090;2023-09-30T14:32:53;11.13;;;3.30;;
69894;SDS011;57172;52.034;5.090;2023-09-30T14:35:21;8.05;;;2.92;;
69894;SDS011;57172;52.034;5.090;2023-09-30T14:37:48;7.63;;;2.80;;
69894;SDS011;57172;52.034;5.090;2023-09-30T14:40:14;9.38;;;3.00;;
69894;SDS011;57172;52.034;5.090;2023-09-30T14:42:42;9.32;;;2.90;;
69894;SDS011;57172;52.034;5.090;2023-09-30T14:45:09;7.70;;;3.20;;
69894;SDS011;57172;52.034;5.090;2023-09-30T14:47:37;9.82;;;3.28;;
69894;SDS011;57172;52.034;5.090;2023-09-30T14:50:07;7.97;;;3.00;;
69894;SDS011;57172;52.034;5.090;2023-09-30T14:52:35;7.35;;;2.70;;
69894;SDS011;57172;52.034;5.090;2023-09-30T14:55:02;8.40;;;3.10;;
69894;SDS011;57172;52.034;5.090;2023-09-30T14:57:30;9.17;;;2.70;;
69894;SDS011;57172;52.034;5.090;2023-09-30T14:59:58;6.68;;;3.00;;
69894;SDS011;57172;52.034;5.090;2023-09-30T15:02:28;9.25;;;2.88;;
69894;SDS011;57172;52.034;5.090;2023-09-30T15:04:55;10.40;;;3.00;;
69894;SDS011;57172;52.034;5.090;2023-09-30T15:07:22;10.80;;;3.50;;